Time;durP1;ratioP1;P1;durP2;ratioP2;P2;SDS_P1;SDS_P2;PMS_P1;PMS_P2;Temp;Humidity;BMP_temperature;BMP_pressure;BME280_temperature;BME280_humidity;BME280_pressure;Samples;Min_cycle;Max_cycle;Signal;HPM_P1;HPM_P2
2023/04/17 00:00:25;;;;;;;;;;;;;;;20.07;54.76;101785.59;5063246;28;2864;-76
2023/04/17 00:02:51;;;;;;;;;;;;;;;20.07;54.78;101782.72;5061770;28;2647;-76
2023/04/17 00:05:21;;;;;;;;;;;;;;;20.06;54.76;101772.56;5061429;28;2713;-76
2023/04/17 00:07:48;;;;;;;;;;;;;;;20.06;54.92;101786.94;5060071;28;3026;-76
2023/04/17 00:10:15;;;;;;;;;;;;;;;20.06;54.81;101783.34;5062283;28;2679;-76
2023/04/17 00:12:41;;;;;;;;;;;;;;;20.06;54.85;101783.34;5061226;28;2757;-76
2023/04/17 00:15:08;;;;;;;;;;;;;;;20.05;54.87;101781.84;5065548;28;2688;-76
2023/04/17 00:17:34;;;;;;;;;;;;;;;20.04;54.80;101781.09;5061521;28;2653;-76
2023/04/17 00:20:01;;;;;;;;;;;;;;;20.04;54.76;101783.97;5064056;28;3013;-76
2023/04/17 00:22:27;;;;;;;;;;;;;;;20.05;54.74;101787.59;5064300;28;2798;-76
2023/04/17 00:24:53;;;;;;;;;;;;;;;20.05;54.84;101785.47;5059347;28;2757;-74
2023/04/17 00:27:20;;;;;;;;;;;;;;;20.02;54.72;101775.22;5066133;28;2761;-76
2023/04/17 00:29:46;;;;;;;;;;;;;;;20.04;54.89;101778.22;5064601;28;2675;-76
2023/04/17 00:32:12;;;;;;;;;;;;;;;20.02;54.72;101778.09;5068407;28;2671;-76
2023/04/17 00:34:39;;;;;;;;;;;;;;;20.01;54.83;101779.44;5062464;28;2874;-76
2023/04/17 00:37:05;;;;;;;;;;;;;;;20.01;54.72;101779.44;5058492;28;2965;-76
2023/04/17 00:39:32;;;;;;;;;;;;;;;20.00;54.82;101777.97;5059732;28;2799;-76
2023/04/17 00:41:58;;;;;;;;;;;;;;;20.01;54.79;101778.72;5064472;28;2671;-76
2023/04/17 00:44:24;;;;;;;;;;;;;;;20.00;54.77;101791.59;5062946;28;2834;-76
2023/04/17 00:46:51;;;;;;;;;;;;;;;20.00;54.70;101777.97;5060851;28;2657;-76
2023/04/17 00:49:17;;;;;;;;;;;;;;;19.99;54.63;101787.94;5056901;28;2894;-75
2023/04/17 00:51:43;;;;;;;;;;;;;;;20.00;54.77;101786.59;5056745;28;2729;-76
2023/04/17 00:54:10;;;;;;;;;;;;;;;19.99;54.67;101787.22;5066357;28;2656;-76
2023/04/17 00:56:36;;;;;;;;;;;;;;;19.99;54.63;101785.06;5043421;28;2863;-76
2023/04/17 00:59:03;;;;;;;;;;;;;;;19.98;54.59;101786.47;5060859;28;2671;-76
2023/04/17 01:01:29;;;;;;;;;;;;;;;19.99;54.70;101787.94;5058369;28;2784;-76
2023/04/17 01:03:55;;;;;;;;;;;;;;;19.98;54.63;101786.47;5060406;28;2715;-76
2023/04/17 01:06:22;;;;;;;;;;;;;;;19.97;54.63;101789.94;5041392;28;2563;-76
2023/04/17 01:08:48;;;;;;;;;;;;;;;19.97;54.74;101789.94;5061854;28;2772;-76
2023/04/17 01:11:15;;;;;;;;;;;;;;;19.96;54.62;101783.47;5059823;28;2873;-75
2023/04/17 01:13:45;;;;;;;;;;;;;;;19.96;54.78;101789.22;5061619;28;2743;-76
2023/04/17 01:16:11;;;;;;;;;;;;;;;19.96;54.71;101794.94;5059437;28;2691;-75
2023/04/17 01:18:37;;;;;;;;;;;;;;;19.96;54.67;101789.22;5057767;28;2704;-76
2023/04/17 01:21:04;;;;;;;;;;;;;;;19.96;54.69;101788.47;5049565;28;2678;-76
2023/04/17 01:23:48;;;;;;;;;;;;;;;19.95;54.56;101786.94;5058092;28;2752;-76
2023/04/17 01:26:15;;;;;;;;;;;;;;;19.95;54.64;101790.59;5075521;28;2718;-76
2023/04/17 01:28:42;;;;;;;;;;;;;;;19.94;54.66;101791.94;5060674;28;2658;-76
2023/04/17 01:31:12;;;;;;;;;;;;;;;19.94;54.60;101791.94;5054318;28;2698;-76
2023/04/17 01:33:39;;;;;;;;;;;;;;;19.93;54.52;101789.69;5042841;28;2787;-76
2023/04/17 01:36:05;;;;;;;;;;;;;;;19.92;54.67;101783.19;5062396;28;2649;-76
2023/04/17 01:38:32;;;;;;;;;;;;;;;19.92;54.44;101786.06;5060951;28;2670;-76
2023/04/17 01:40:58;;;;;;;;;;;;;;;19.92;54.54;101788.94;5062791;28;2784;-76
2023/04/17 01:43:24;;;;;;;;;;;;;;;19.92;54.58;101788.19;5061215;28;2424;-76
2023/04/17 01:45:51;;;;;;;;;;;;;;;19.91;54.68;101787.47;5061333;28;2664;-76
2023/04/17 01:48:17;;;;;;;;;;;;;;;19.91;54.58;101786.72;5062841;28;2799;-76
2023/04/17 01:50:44;;;;;;;;;;;;;;;19.90;54.50;101788.81;5053298;28;2779;-76
2023/04/17 01:53:10;;;;;;;;;;;;;;;19.90;54.69;101791.69;5061920;28;2851;-76
2023/04/17 01:55:36;;;;;;;;;;;;;;;19.90;54.78;101796.69;5050257;28;2754;-75
2023/04/17 01:58:03;;;;;;;;;;;;;;;19.90;54.54;101788.81;5063403;28;3022;-76
2023/04/17 02:00:30;;;;;;;;;;;;;;;19.90;54.39;101788.06;5064063;28;2689;-76
2023/04/17 02:02:56;;;;;;;;;;;;;;;19.89;54.50;101798.81;5060875;28;2729;-76
2023/04/17 02:05:23;;;;;;;;;;;;;;;19.88;54.39;101794.44;5059445;28;2803;-76
2023/04/17 02:07:50;;;;;;;;;;;;;;;19.88;54.47;101797.31;5058995;28;2879;-76
2023/04/17 02:10:17;;;;;;;;;;;;;;;19.88;54.56;101798.06;5050599;28;2913;-76
2023/04/17 02:12:43;;;;;;;;;;;;;;;19.86;54.39;101797.94;5064635;28;2451;-76
2023/04/17 02:15:09;;;;;;;;;;;;;;;19.87;54.49;101798.69;5059751;28;2712;-76
2023/04/17 02:17:36;;;;;;;;;;;;;;;19.87;54.60;101804.44;5062441;28;2762;-76
2023/04/17 02:20:05;;;;;;;;;;;;;;;19.87;54.43;101804.44;5062826;28;2558;-76
2023/04/17 02:22:32;;;;;;;;;;;;;;;19.85;54.38;101805.06;5060568;28;2608;-76
2023/04/17 02:24:58;;;;;;;;;;;;;;;19.85;54.42;101807.19;5060540;28;2695;-76
2023/04/17 02:27:24;;;;;;;;;;;;;;;19.85;54.56;101810.06;5057930;28;3110;-75
2023/04/17 02:29:51;;;;;;;;;;;;;;;19.84;54.49;101806.44;5058996;28;2755;-76
2023/04/17 02:32:17;;;;;;;;;;;;;;;19.84;54.38;101805.69;5063770;28;2771;-76
2023/04/17 02:34:44;;;;;;;;;;;;;;;19.83;54.52;101804.91;5048308;28;2726;-76
2023/04/17 02:37:13;;;;;;;;;;;;;;;19.84;54.38;101812.19;5077875;28;2713;-75
2023/04/17 02:39:39;;;;;;;;;;;;;;;19.85;54.47;101801.44;5057989;28;2648;-75
2023/04/17 02:42:06;;;;;;;;;;;;;;;19.87;54.41;101810.19;5054173;28;2799;-75
2023/04/17 02:48:26;;;;;;;;;;;;;;;19.92;54.31;101809.06;5035057;28;2892;-76
2023/04/17 02:50:52;;;;;;;;;;;;;;;19.96;54.67;101806.47;5052985;28;2856;-76
2023/04/17 02:53:20;;;;;;;;;;;;;;;19.98;54.58;101809.47;5062103;28;2743;-76
2023/04/17 02:55:47;;;;;;;;;;;;;;;19.99;54.70;101815.94;5065135;28;2607;-76
2023/04/17 02:58:15;;;;;;;;;;;;;;;19.99;54.68;101810.94;5059092;28;2702;-76
2023/04/17 03:00:42;;;;;;;;;;;;;;;19.99;54.76;101813.06;5063853;28;2466;-76
2023/04/17 03:03:13;;;;;;;;;;;;;;;20.00;54.68;101812.47;5060446;28;2784;-76
2023/04/17 03:05:40;;;;;;;;;;;;;;;20.01;54.59;101821.84;5063765;28;2713;-76
2023/04/17 03:08:07;;;;;;;;;;;;;;;20.01;54.60;101819.72;5060203;28;2698;-76
2023/04/17 03:10:42;;;;;;;;;;;;;;;19.99;54.60;101822.44;5067052;28;2614;-75
2023/04/17 03:13:08;;;;;;;;;;;;;;;20.01;54.61;101819.72;5068506;28;2687;-76
2023/04/17 03:15:35;;;;;;;;;;;;;;;20.02;54.55;101811.81;5064338;28;2694;-76
2023/04/17 03:18:01;;;;;;;;;;;;;;;20.03;54.52;101827.72;5066550;28;2548;-76
2023/04/17 03:20:28;;;;;;;;;;;;;;;20.04;54.71;101824.22;5068666;28;3029;-76
2023/04/17 03:22:55;;;;;;;;;;;;;;;20.05;54.49;101825.72;5064110;28;2520;-76
2023/04/17 03:25:21;;;;;;;;;;;;;;;20.06;54.40;101827.22;5062139;28;2865;-76
2023/04/17 03:27:51;;;;;;;;;;;;;;;20.07;54.59;101833.72;5065985;28;2566;-77
2023/04/17 03:30:19;;;;;;;;;;;;;;;20.07;54.46;101834.47;5066910;28;2619;-77
2023/04/17 03:32:48;;;;;;;;;;;;;;;20.07;54.45;101834.47;5063923;28;2327;-76
2023/04/17 03:35:15;;;;;;;;;;;;;;;20.07;54.54;101840.22;5058378;28;2498;-76
2023/04/17 03:37:41;;;;;;;;;;;;;;;20.07;54.71;101843.09;5067106;28;2456;-76
2023/04/17 03:40:10;;;;;;;;;;;;;;;20.07;54.43;101845.97;5058241;28;2611;-76
2023/04/17 03:42:36;;;;;;;;;;;;;;;20.08;54.52;101850.34;5060382;28;2746;-76
2023/04/17 03:45:03;;;;;;;;;;;;;;;20.09;54.35;101842.50;5066666;28;2296;-76
2023/04/17 03:47:32;;;;;;;;;;;;;;;20.11;54.50;101844.72;5065545;28;2609;-76
2023/04/17 03:49:58;;;;;;;;;;;;;;;20.12;54.53;101846.25;5077076;28;2563;-76
2023/04/17 03:52:29;;;;;;;;;;;;;;;20.12;54.51;101846.25;5063538;28;2649;-76
2023/04/17 03:54:57;;;;;;;;;;;;;;;20.13;54.35;101847.72;5066794;28;2493;-76
2023/04/17 03:57:24;;;;;;;;;;;;;;;20.13;54.28;101851.34;5068081;28;2223;-76
2023/04/17 03:59:51;;;;;;;;;;;;;;;20.13;54.38;101851.34;5066996;28;2696;-76
2023/04/17 04:02:18;;;;;;;;;;;;;;;20.13;54.29;101856.34;5065914;28;2387;-76
2023/04/17 04:04:48;;;;;;;;;;;;;;;20.13;54.52;101859.97;5062802;28;2674;-76
2023/04/17 04:07:15;;;;;;;;;;;;;;;20.13;54.32;101856.34;5082221;28;2607;-76
2023/04/17 04:09:43;;;;;;;;;;;;;;;20.13;54.52;101862.09;5067034;28;2484;-76
2023/04/17 04:12:09;;;;;;;;;;;;;;;20.13;54.56;101864.97;5066862;28;2933;-76
2023/04/17 04:14:39;;;;;;;;;;;;;;;20.12;54.25;101872.88;5062364;28;2837;-76
2023/04/17 04:17:08;;;;;;;;;;;;;;;20.14;54.29;101866.50;5066194;28;2436;-76
2023/04/17 04:19:34;;;;;;;;;;;;;;;20.15;54.47;101862.25;5067017;28;2666;-76
2023/04/17 04:22:01;;;;;;;;;;;;;;;20.15;54.19;101865.13;5065035;28;2400;-76
2023/04/17 04:24:37;;;;;;;;;;;;;;;20.16;54.37;101870.25;5081678;28;2667;-76
2023/04/17 04:27:04;;;;;;;;;;;;;;;20.18;54.22;101878.25;5060411;28;2703;-77
2023/04/17 04:29:32;;;;;;;;;;;;;;;20.16;54.33;101878.88;5054880;28;2529;-76
2023/04/17 04:32:03;;;;;;;;;;;;;;;20.17;54.11;101877.50;5061833;28;2572;-76
2023/04/17 04:34:36;;;;;;;;;;;;;;;20.17;54.17;101882.50;5064090;28;2821;-77
2023/04/17 04:37:02;;;;;;;;;;;;;;;20.18;54.46;101878.25;5062500;28;2543;-76
2023/04/17 04:39:36;;;;;;;;;;;;;;;20.18;54.35;101884.00;5065576;28;2762;-77
2023/04/17 04:42:08;;;;;;;;;;;;;;;20.17;54.38;101877.50;5080799;28;2647;-76
2023/04/17 04:44:51;;;;;;;;;;;;;;;20.17;54.35;101880.38;5060524;28;2646;-76
2023/04/17 04:47:19;;;;;;;;;;;;;;;20.17;54.14;101879.63;5066734;28;2481;-77
2023/04/17 04:49:47;;;;;;;;;;;;;;;20.18;54.21;101881.13;5060291;28;3132;-76
2023/04/17 04:52:16;;;;;;;;;;;;;;;20.18;54.37;101884.75;5067834;28;2900;-76
2023/04/17 04:54:43;;;;;;;;;;;;;;;20.19;54.21;101882.63;5062073;28;2993;-76
2023/04/17 04:57:09;;;;;;;;;;;;;;;20.20;54.23;101892.75;5079435;28;2842;-76
2023/04/17 04:59:37;;;;;;;;;;;;;;;20.21;54.26;101894.28;5057682;28;2747;-76
2023/04/17 05:02:28;;;;;;;;;;;;;;;20.21;54.24;101894.28;5054384;28;2582;-76
2023/04/17 05:04:55;;;;;;;;;;;;;;;20.22;54.08;101895.75;5053184;28;2651;-76
2023/04/17 05:07:22;;;;;;;;;;;;;;;20.22;54.32;101901.50;5064440;28;2565;-76
2023/04/17 05:09:49;;;;;;;;;;;;;;;20.21;54.35;101895.00;5063159;28;2583;-76
2023/04/17 05:12:15;;;;;;;;;;;;;;;20.21;54.10;101900.75;5057253;28;2790;-75
2023/04/17 05:14:42;;;;;;;;;;;;;;;20.21;54.14;101900.03;5073184;28;2779;-76
2023/04/17 05:17:09;;;;;;;;;;;;;;;20.21;54.26;101905.78;5079542;28;2547;-76
2023/04/17 05:19:35;;;;;;;;;;;;;;;20.19;54.14;101915.00;5064378;28;2796;-77
2023/04/17 05:22:04;;;;;;;;;;;;;;;20.20;54.09;101910.00;5063700;28;2690;-77
2023/04/17 05:24:34;;;;;;;;;;;;;;;20.21;54.18;101917.28;5059714;28;2599;-77
2023/04/17 05:27:01;;;;;;;;;;;;;;;20.21;54.27;101920.16;5065568;28;2760;-76
2023/04/17 05:29:29;;;;;;;;;;;;;;;20.22;54.12;101921.63;5064113;28;2338;-77
2023/04/17 05:31:56;;;;;;;;;;;;;;;20.23;54.09;101923.16;5053463;28;2570;-77
2023/04/17 05:34:47;;;;;;;;;;;;;;;20.24;54.16;101918.91;5062386;28;2690;-77
2023/04/17 05:37:19;;;;;;;;;;;;;;;20.26;54.24;101921.91;5055029;28;2894;-77
2023/04/17 05:39:45;;;;;;;;;;;;;;;20.25;54.28;101923.28;5076831;28;2696;-77
2023/04/17 05:42:12;;;;;;;;;;;;;;;20.24;54.13;101927.53;5058203;28;2863;-76
2023/04/17 05:44:38;;;;;;;;;;;;;;;20.24;54.03;101921.78;5058865;28;2744;-77
2023/04/17 05:47:06;;;;;;;;;;;;;;;20.24;54.00;101927.53;5062011;28;2753;-77
2023/04/17 05:49:32;;;;;;;;;;;;;;;20.24;54.03;101939.03;5061672;28;2727;-77
2023/04/17 05:51:59;;;;;;;;;;;;;;;20.24;54.14;101939.03;5057821;28;2694;-77
2023/04/17 05:54:27;;;;;;;;;;;;;;;20.23;54.13;101932.53;5059746;28;2705;-77
2023/04/17 05:56:55;;;;;;;;;;;;;;;20.23;54.17;101931.78;5058378;28;2649;-76
2023/04/17 05:59:22;;;;;;;;;;;;;;;20.24;53.98;101933.28;5052945;28;2703;-77
2023/04/17 06:01:48;;;;;;;;;;;;;;;20.24;53.96;101933.28;5076835;28;2681;-77
2023/04/17 06:04:18;;;;;;;;;;;;;;;20.26;53.97;101933.41;5056653;28;2814;-77
2023/04/17 06:06:47;;;;;;;;;;;;;;;20.28;54.08;101945.06;5051834;28;2709;-77
2023/04/17 06:09:14;;;;;;;;;;;;;;;20.27;53.99;101944.31;5053633;28;2884;-76
2023/04/17 06:11:41;;;;;;;;;;;;;;;20.27;53.87;101937.78;5061333;28;2637;-77
2023/04/17 06:14:07;;;;;;;;;;;;;;;20.27;54.13;101929.91;5060936;28;2631;-76
2023/04/17 06:16:34;;;;;;;;;;;;;;;20.28;54.00;101942.91;5076381;28;2704;-75
2023/04/17 06:19:01;;;;;;;;;;;;;;;20.29;54.01;101940.78;5075016;28;2881;-74
2023/04/17 06:21:27;;;;;;;;;;;;;;;20.29;54.26;101949.41;5058750;28;2930;-76
2023/04/17 06:23:53;;;;;;;;;;;;;;;20.28;54.11;101945.06;5061836;28;2838;-76
2023/04/17 06:26:20;;;;;;;;;;;;;;;20.28;54.08;101945.06;5062174;28;2748;-76
2023/04/17 06:28:48;;;;;;;;;;;;;;;20.28;54.20;101947.94;5054352;28;2743;-77
2023/04/17 06:31:15;;;;;;;;;;;;;;;20.28;54.25;101960.19;5059768;28;2680;-76
2023/04/17 06:33:42;;;;;;;;;;;;;;;20.28;54.05;101950.81;5062856;28;2695;-76
2023/04/17 06:36:27;;;;;;;;;;;;;;;20.30;54.16;101962.44;5079001;28;2663;-76
2023/04/17 06:38:56;;;;;;;;;;;;;;;20.30;54.12;101954.56;5070694;28;2569;-76
2023/04/17 06:41:22;;;;;;;;;;;;;;;20.31;54.33;101961.06;5068541;28;1760;-76
2023/04/17 06:43:48;;;;;;;;;;;;;;;20.33;54.34;101969.06;5064992;28;2643;-76
2023/04/17 06:46:15;;;;;;;;;;;;;;;20.32;54.24;101965.44;5064099;28;2284;-76
2023/04/17 06:48:41;;;;;;;;;;;;;;;20.32;54.32;101962.56;5059393;28;2776;-76
2023/04/17 06:51:08;;;;;;;;;;;;;;;20.31;54.30;101975.44;5061183;28;2725;-76
2023/04/17 06:53:34;;;;;;;;;;;;;;;20.31;54.13;101963.94;5059632;28;2942;-76
2023/04/17 06:56:00;;;;;;;;;;;;;;;20.24;53.87;101967.78;5063852;28;2707;-76
2023/04/17 06:58:27;;;;;;;;;;;;;;;20.18;52.14;101971.03;5059021;28;2646;-76
2023/04/17 07:00:53;;;;;;;;;;;;;;;20.16;51.67;101973.00;5065307;28;2887;-61
2023/04/17 07:03:19;;;;;;;;;;;;;;;18.98;48.73;101973.06;5056164;28;2696;-62
2023/04/17 07:05:47;;;;;;;;;;;;;;;18.57;49.53;101986.63;5067117;28;2672;-62
2023/04/17 07:08:14;;;;;;;;;;;;;;;19.32;49.37;101987.56;5063523;28;2637;-61
2023/04/17 07:10:41;;;;;;;;;;;;;;;19.59;48.58;101987.25;5057374;28;2732;-60
2023/04/17 07:13:07;;;;;;;;;;;;;;;19.72;48.88;101989.56;5053685;28;2844;-64
2023/04/17 07:15:33;;;;;;;;;;;;;;;19.72;47.85;101988.81;5065324;28;2804;-63
2023/04/17 07:18:00;;;;;;;;;;;;;;;19.80;47.68;101990.13;5057246;28;2980;-64
2023/04/17 07:20:26;;;;;;;;;;;;;;;19.90;48.45;101987.16;5058881;28;2684;-64
2023/04/17 07:22:54;;;;;;;;;;;;;;;19.93;49.09;101980.19;5051393;28;2971;-64
2023/04/17 07:25:20;;;;;;;;;;;;;;;19.80;50.23;101998.00;5059952;28;2852;-63
2023/04/17 07:27:46;;;;;;;;;;;;;;;20.01;49.13;101997.97;5061644;28;3066;-65
2023/04/17 07:30:13;;;;;;;;;;;;;;;20.12;49.47;102002.28;5065756;28;2605;-66
2023/04/17 07:32:40;;;;;;;;;;;;;;;20.15;49.95;101994.53;5063331;28;2702;-64
2023/04/17 07:35:06;;;;;;;;;;;;;;;20.19;49.97;102000.53;5062016;28;2486;-64
2023/04/17 07:37:33;;;;;;;;;;;;;;;20.23;50.52;102000.81;5067553;28;2621;-64
2023/04/17 07:39:59;;;;;;;;;;;;;;;20.29;50.71;101998.31;5060907;28;2679;-62
2023/04/17 07:42:27;;;;;;;;;;;;;;;20.39;50.52;102001.88;5066784;28;2506;-62
2023/04/17 07:44:53;;;;;;;;;;;;;;;20.37;51.14;102004.59;5062408;28;2687;-61
2023/04/17 07:47:19;;;;;;;;;;;;;;;20.36;51.02;102008.84;5061077;28;2717;-62
2023/04/17 07:49:47;;;;;;;;;;;;;;;20.36;51.29;102014.59;5063600;28;2630;-61
2023/04/17 07:52:16;;;;;;;;;;;;;;;20.34;51.81;102016.59;5058663;28;2606;-63
2023/04/17 07:54:43;;;;;;;;;;;;;;;20.32;51.43;102013.59;5065797;28;2377;-65
2023/04/17 07:57:09;;;;;;;;;;;;;;;20.45;51.63;102015.88;5057557;28;2807;-63
2023/04/17 07:59:36;;;;;;;;;;;;;;;20.53;51.83;102022.16;5061198;28;2717;-63
2023/04/17 08:02:02;;;;;;;;;;;;;;;20.52;51.99;102020.66;5060867;28;2700;-64
2023/04/17 08:04:29;;;;;;;;;;;;;;;20.56;51.95;102025.91;5053945;28;3039;-65
2023/04/17 08:06:56;;;;;;;;;;;;;;;20.51;52.31;102024.91;5059306;28;3121;-63
2023/04/17 08:09:22;;;;;;;;;;;;;;;20.47;52.27;102025.38;5062644;28;2974;-62
2023/04/17 08:11:49;;;;;;;;;;;;;;;20.45;52.54;102033.88;5064080;28;2554;-63
2023/04/17 08:14:23;;;;;;;;;;;;;;;20.44;52.45;102037.41;5059665;28;2746;-63
2023/04/17 08:16:49;;;;;;;;;;;;;;;20.45;52.60;102030.25;5063929;28;2623;-63
2023/04/17 08:19:15;;;;;;;;;;;;;;;20.46;52.72;102034.66;5064204;28;2602;-63
2023/04/17 08:21:42;;;;;;;;;;;;;;;20.46;52.42;102035.41;5065367;28;2653;-63
2023/04/17 08:24:08;;;;;;;;;;;;;;;20.45;52.47;102039.63;5056881;28;2683;-63
2023/04/17 08:26:35;;;;;;;;;;;;;;;20.47;52.56;102041.91;5063883;28;2577;-63
2023/04/17 08:29:03;;;;;;;;;;;;;;;20.47;52.60;102042.66;5066189;28;2851;-63
2023/04/17 08:31:29;;;;;;;;;;;;;;;20.49;52.72;102050.66;5061548;28;2649;-63
2023/04/17 08:33:57;;;;;;;;;;;;;;;20.48;52.62;102046.31;5065957;28;1672;-62
2023/04/17 08:36:35;;;;;;;;;;;;;;;20.48;52.31;102054.94;5063334;28;2927;-63
2023/04/17 08:39:03;;;;;;;;;;;;;;;20.48;52.88;102044.19;5062695;28;2684;-63
2023/04/17 08:41:33;;;;;;;;;;;;;;;20.48;52.79;102052.81;5055417;28;2628;-63
2023/04/17 08:43:59;;;;;;;;;;;;;;;20.48;52.57;102052.81;5065520;28;1948;-63
2023/04/17 08:46:26;;;;;;;;;;;;;;;20.50;52.70;102052.16;5063298;28;2618;-63
2023/04/17 08:48:52;;;;;;;;;;;;;;;20.51;52.73;102048.69;5061146;28;2623;-63
2023/04/17 08:51:23;;;;;;;;;;;;;;;20.53;52.70;102044.44;5060586;28;2776;-62
2023/04/17 08:53:50;;;;;;;;;;;;;;;20.53;52.55;102044.44;5063220;28;2660;-62
2023/04/17 08:56:16;;;;;;;;;;;;;;;20.53;52.78;102050.19;5059499;28;2677;-63
2023/04/17 08:58:42;;;;;;;;;;;;;;;20.54;52.67;102051.69;5059049;28;2628;-63
2023/04/17 09:01:17;;;;;;;;;;;;;;;20.54;52.81;102054.56;5064438;28;2573;-63
2023/04/17 09:03:44;;;;;;;;;;;;;;;20.55;52.71;102048.19;5064756;28;2903;-63
2023/04/17 09:06:11;;;;;;;;;;;;;;;20.56;53.03;102048.94;5060386;28;2622;-63
2023/04/17 09:08:37;;;;;;;;;;;;;;;20.55;52.70;102053.19;5062534;28;2533;-62
2023/04/17 09:11:04;;;;;;;;;;;;;;;20.57;52.66;102056.22;5066048;28;1711;-63
2023/04/17 09:13:37;;;;;;;;;;;;;;;20.55;52.82;102050.31;5065055;28;1826;-63
2023/04/17 09:16:04;;;;;;;;;;;;;;;20.56;52.84;102048.94;5062813;28;2676;-62
2023/04/17 09:18:30;;;;;;;;;;;;;;;20.57;52.83;102050.47;5062045;28;2691;-63
2023/04/17 09:20:58;;;;;;;;;;;;;;;20.57;52.70;102050.47;5063300;28;2427;-62
2023/04/17 09:23:26;;;;;;;;;;;;;;;20.57;52.82;102044.72;5062512;28;2656;-63
2023/04/17 09:26:05;;;;;;;;;;;;;;;20.56;52.88;102051.81;5064533;28;2541;-62
2023/04/17 09:28:34;;;;;;;;;;;;;;;20.56;52.81;102055.47;5056619;28;2787;-62
2023/04/17 09:31:05;;;;;;;;;;;;;;;20.56;52.95;102048.94;5062106;28;2674;-62
2023/04/17 09:33:31;;;;;;;;;;;;;;;20.56;52.87;102051.81;5058314;28;2677;-62
2023/04/17 09:36:17;;;;;;;;;;;;;;;20.55;53.02;102058.94;5063348;28;2605;-63
2023/04/17 09:38:46;;;;;;;;;;;;;;;20.55;53.07;102048.19;5058535;28;2581;-63
2023/04/17 09:41:25;;;;;;;;;;;;;;;20.56;53.08;102054.69;5060900;28;2646;-62
2023/04/17 09:43:53;;;;;;;;;;;;;;;20.57;52.86;102044.72;5063599;28;2662;-63
2023/04/17 09:46:29;;;;;;;;;;;;;;;20.57;52.84;102050.47;5064653;28;2653;-63
2023/04/17 09:48:57;;;;;;;;;;;;;;;20.55;53.03;102050.31;5058889;28;2732;-63
2023/04/17 09:51:23;;;;;;;;;;;;;;;20.56;52.99;102051.81;5054858;28;2875;-63
2023/04/17 09:53:50;;;;;;;;;;;;;;;20.54;52.84;102051.69;5060564;28;2654;-63
2023/04/17 09:56:20;;;;;;;;;;;;;;;20.54;52.98;102045.94;5063503;28;1556;-62
2023/04/17 09:58:47;;;;;;;;;;;;;;;20.57;52.89;102047.59;5062259;28;2649;-63
2023/04/17 10:01:13;;;;;;;;;;;;;;;20.56;53.10;102054.69;5053779;28;2656;-62
2023/04/17 10:03:40;;;;;;;;;;;;;;;20.57;53.02;102047.59;5064858;28;1603;-62
2023/04/17 10:06:07;;;;;;;;;;;;;;;20.56;53.07;102055.47;5062461;28;2698;-62
2023/04/17 10:08:33;;;;;;;;;;;;;;;20.56;52.88;102057.56;5058834;28;2594;-63
2023/04/17 10:11:03;;;;;;;;;;;;;;;20.57;52.85;102056.22;5059562;28;2735;-63
2023/04/17 10:13:29;;;;;;;;;;;;;;;20.56;53.04;102048.94;5053693;28;2826;-63
2023/04/17 10:15:56;;;;;;;;;;;;;;;20.56;52.92;102049.72;5056773;28;2720;-63
2023/04/17 10:18:23;;;;;;;;;;;;;;;20.56;52.83;102058.34;5059756;28;2643;-63
2023/04/17 10:20:51;;;;;;;;;;;;;;;20.57;53.05;102056.22;5063782;28;2051;-63
2023/04/17 10:23:28;;;;;;;;;;;;;;;20.56;53.07;102060.44;5064797;28;2545;-63
2023/04/17 10:26:13;;;;;;;;;;;;;;;20.56;53.07;102048.94;5060469;28;2637;-63
2023/04/17 10:28:47;;;;;;;;;;;;;;;20.57;52.84;102050.47;5061775;28;2614;-63
2023/04/17 10:31:13;;;;;;;;;;;;;;;20.56;53.03;102054.69;5065614;28;1556;-63
2023/04/17 10:33:49;;;;;;;;;;;;;;;20.57;52.83;102053.34;5065342;28;1616;-63
2023/04/17 10:36:34;;;;;;;;;;;;;;;20.56;53.10;102055.47;5064201;28;2875;-62
2023/04/17 10:39:13;;;;;;;;;;;;;;;20.55;53.11;102045.31;5061798;28;2577;-63
2023/04/17 10:41:58;;;;;;;;;;;;;;;20.56;53.01;102048.94;5063166;28;2495;-63
2023/04/17 10:44:24;;;;;;;;;;;;;;;20.56;53.10;102051.81;5053260;28;2618;-63
2023/04/17 10:46:51;;;;;;;;;;;;;;;20.57;52.88;102047.59;5057962;28;3034;-63
2023/04/17 10:49:19;;;;;;;;;;;;;;;20.57;53.12;102044.72;5059880;28;2689;-63
2023/04/17 10:51:46;;;;;;;;;;;;;;;20.58;52.95;102034.72;5065985;28;1817;-63
2023/04/17 10:54:14;;;;;;;;;;;;;;;20.56;53.14;102037.44;5062968;28;2466;-63
2023/04/17 10:56:48;;;;;;;;;;;;;;;20.56;52.84;102035.31;5059506;28;2620;-63
2023/04/17 10:59:17;;;;;;;;;;;;;;;20.57;53.02;102041.84;5062667;28;2562;-63
2023/04/17 11:01:47;;;;;;;;;;;;;;;20.56;52.78;102034.56;5062264;28;2777;-63
2023/04/17 11:04:23;;;;;;;;;;;;;;;20.57;52.93;102044.72;5058410;28;2756;-63
2023/04/17 11:06:51;;;;;;;;;;;;;;;20.57;53.07;102039.72;5061758;28;2677;-63
2023/04/17 11:09:18;;;;;;;;;;;;;;;20.58;52.89;102029.72;5064967;28;1524;-63
2023/04/17 11:11:45;;;;;;;;;;;;;;;20.57;53.03;102038.94;5062612;28;3241;-63
2023/04/17 11:14:12;;;;;;;;;;;;;;;20.57;53.09;102038.94;5061267;28;2612;-63
2023/04/17 11:16:41;;;;;;;;;;;;;;;20.59;53.05;102041.97;5063584;28;2648;-63
2023/04/17 11:19:08;;;;;;;;;;;;;;;20.57;53.14;102041.84;5064504;28;1742;-63
2023/04/17 11:21:38;;;;;;;;;;;;;;;20.58;52.89;102043.34;5059969;28;2648;-63
2023/04/17 11:24:05;;;;;;;;;;;;;;;20.58;53.06;102043.34;5056123;28;2760;-63
2023/04/17 11:26:40;;;;;;;;;;;;;;;20.58;52.83;102035.47;5064745;28;1938;-63
2023/04/17 11:29:12;;;;;;;;;;;;;;;20.58;53.07;102037.59;5066871;28;2637;-62
2023/04/17 11:31:39;;;;;;;;;;;;;;;20.58;52.92;102034.72;5068234;28;1798;-62
2023/04/17 11:34:07;;;;;;;;;;;;;;;20.60;52.86;102037.72;5060950;28;2624;-63
2023/04/17 11:36:33;;;;;;;;;;;;;;;20.60;52.96;102043.47;5066823;28;2625;-62
2023/04/17 11:38:59;;;;;;;;;;;;;;;20.59;53.03;102048.50;5066076;28;2612;-63
2023/04/17 11:41:35;;;;;;;;;;;;;;;20.57;53.08;102038.94;5066504;28;2388;-63
2023/04/17 11:44:02;;;;;;;;;;;;;;;20.58;53.05;102040.47;5065473;28;2695;-63
2023/04/17 11:46:28;;;;;;;;;;;;;;;20.56;53.03;102046.84;5064825;28;2585;-63
2023/04/17 11:48:55;;;;;;;;;;;;;;;20.59;53.16;102044.84;5068081;28;1786;-63
2023/04/17 11:51:21;;;;;;;;;;;;;;;20.59;53.13;102047.72;5066736;28;2613;-62
2023/04/17 11:53:48;;;;;;;;;;;;;;;20.59;52.95;102053.47;5068057;28;1711;-62
2023/04/17 11:56:14;;;;;;;;;;;;;;;20.58;53.06;102051.97;5057103;28;2647;-63
2023/04/17 11:58:47;;;;;;;;;;;;;;;20.60;53.04;102060.75;5060325;28;2642;-63
2023/04/17 12:01:13;;;;;;;;;;;;;;;20.61;53.14;102048.59;5061478;28;2716;-63
2023/04/17 12:03:39;;;;;;;;;;;;;;;20.62;53.04;102061.63;5070212;28;1652;-63
2023/04/17 12:06:12;;;;;;;;;;;;;;;20.63;53.22;102056.63;5060185;28;2807;-62
2023/04/17 12:08:42;;;;;;;;;;;;;;;20.64;53.11;102061.75;5065289;28;3234;-65
2023/04/17 12:11:22;;;;;;;;;;;;;;;20.57;53.67;102057.00;5057660;28;2836;-63
2023/04/17 12:13:49;;;;;;;;;;;;;;;20.61;53.25;102065.13;5065869;28;2558;-64
2023/04/17 12:16:15;;;;;;;;;;;;;;;20.66;53.26;102058.25;5065528;28;2732;-63
2023/04/17 12:18:41;;;;;;;;;;;;;;;20.68;53.03;102064.91;5064540;28;2564;-64
2023/04/17 12:21:08;;;;;;;;;;;;;;;20.67;53.34;102066.25;5061390;28;2640;-63
2023/04/17 12:23:34;;;;;;;;;;;;;;;20.68;53.07;102064.13;5064279;28;2661;-63
2023/04/17 12:26:00;;;;;;;;;;;;;;;20.69;53.33;102062.78;5063409;28;2557;-63
2023/04/17 12:28:27;;;;;;;;;;;;;;;20.70;53.34;102055.63;5061822;28;2636;-63
2023/04/17 12:30:54;;;;;;;;;;;;;;;20.72;53.33;102064.41;5066323;28;2708;-63
2023/04/17 12:33:20;;;;;;;;;;;;;;;20.74;53.41;102069.53;5066507;28;2716;-63
2023/04/17 12:35:46;;;;;;;;;;;;;;;20.74;53.47;102067.41;5062433;28;2787;-63
2023/04/17 12:38:13;;;;;;;;;;;;;;;20.72;53.39;102067.28;5050589;28;3355;-63
2023/04/17 12:40:42;;;;;;;;;;;;;;;20.72;53.35;102073.03;5061067;28;3087;-63
2023/04/17 12:43:08;;;;;;;;;;;;;;;20.72;53.57;102067.28;5060438;28;2763;-63
2023/04/17 12:45:35;;;;;;;;;;;;;;;20.71;53.46;102071.53;5058679;28;3121;-63
2023/04/17 12:48:02;;;;;;;;;;;;;;;20.71;53.63;102071.53;5063010;28;2542;-63
2023/04/17 12:50:29;;;;;;;;;;;;;;;20.71;53.79;102066.53;5066483;28;2344;-62
2023/04/17 12:52:55;;;;;;;;;;;;;;;20.72;53.66;102070.16;5060385;28;2607;-62
2023/04/17 12:55:21;;;;;;;;;;;;;;;20.70;53.65;102075.78;5060154;28;2665;-63